sensor_id;sensor_type;location;lat;lon;timestamp;pressure;altitude;pressure_sealevel;temperature;humidity
26823;BME280;14852;51.910;8.878;2023-04-07T00:01:03;99666.94;;;11.63;41.05
26823;BME280;14852;51.910;8.878;2023-04-07T00:03:29;99670.88;;;11.54;41.40
26823;BME280;14852;51.910;8.878;2023-04-07T00:05:55;99676.44;;;11.48;42.14
26823;BME280;14852;51.910;8.878;2023-04-07T00:08:20;99669.72;;;11.44;42.37
26823;BME280;14852;51.910;8.878;2023-04-07T00:10:46;99670.56;;;11.45;41.87
26823;BME280;14852;51.910;8.878;2023-04-07T00:13:12;99676.53;;;11.47;41.99
26823;BME280;14852;51.910;8.878;2023-04-07T00:15:38;99669.72;;;11.44;41.91
26823;BME280;14852;51.910;8.878;2023-04-07T00:18:03;99664.72;;;11.41;42.32
26823;BME280;14852;51.910;8.878;2023-04-07T00:20:29;99664.06;;;11.38;42.26
26823;BME280;14852;51.910;8.878;2023-04-07T00:22:55;99672.88;;;11.35;42.58
26823;BME280;14852;51.910;8.878;2023-04-07T00:25:21;99663.38;;;11.34;42.36
26823;BME280;14852;51.910;8.878;2023-04-07T00:27:47;99664.22;;;11.35;42.49
26823;BME280;14852;51.910;8.878;2023-04-07T00:30:12;99667.66;;;11.35;42.81
26823;BME280;14852;51.910;8.878;2023-04-07T00:32:40;99658.19;;;11.34;42.57
26823;BME280;14852;51.910;8.878;2023-04-07T00:35:06;99662.47;;;11.35;42.72
26823;BME280;14852;51.910;8.878;2023-04-07T00:44:01;99658.78;;;11.23;42.92
26823;BME280;14852;51.910;8.878;2023-04-07T00:46:27;99661.00;;;11.15;43.70
26823;BME280;14852;51.910;8.878;2023-04-07T00:48:53;99660.47;;;11.09;43.29
26823;BME280;14852;51.910;8.878;2023-04-07T00:51:20;99660.59;;;11.07;43.39
26823;BME280;14852;51.910;8.878;2023-04-07T00:53:48;99652.97;;;11.04;43.37
26823;BME280;14852;51.910;8.878;2023-04-07T00:56:14;99658.16;;;11.04;43.64
26823;BME280;14852;51.910;8.878;2023-04-07T00:58:40;99654.88;;;11.01;44.09
26823;BME280;14852;51.910;8.878;2023-04-07T01:01:20;99654.13;;;10.99;43.71
26823;BME280;14852;51.910;8.878;2023-04-07T01:04:08;99650.53;;;11.01;43.69
26823;BME280;14852;51.910;8.878;2023-04-07T01:06:41;99655.88;;;10.98;43.42
26823;BME280;14852;51.910;8.878;2023-04-07T01:09:22;99646.41;;;10.97;43.61
26823;BME280;14852;51.910;8.878;2023-04-07T01:12:23;99646.50;;;10.96;43.92
26823;BME280;14852;51.910;8.878;2023-04-07T01:14:58;99648.28;;;10.95;43.76
26823;BME280;14852;51.910;8.878;2023-04-07T01:17:54;99646.69;;;10.93;43.50
26823;BME280;14852;51.910;8.878;2023-04-07T01:20:22;99639.19;;;10.86;44.40
26823;BME280;14852;51.910;8.878;2023-04-07T01:23:03;99648.69;;;10.87;43.93
26823;BME280;14852;51.910;8.878;2023-04-07T01:26:17;99636.59;;;10.86;43.99
26823;BME280;14852;51.910;8.878;2023-04-07T01:29:29;99643.91;;;10.80;44.27
26823;BME280;14852;51.910;8.878;2023-04-07T01:31:59;99643.22;;;10.76;44.44
26823;BME280;14852;51.910;8.878;2023-04-07T01:34:30;99637.38;;;10.73;44.70
26823;BME280;14852;51.910;8.878;2023-04-07T01:36:58;99638.31;;;10.72;45.01
26823;BME280;14852;51.910;8.878;2023-04-07T01:39:27;99634.78;;;10.73;44.61
26823;BME280;14852;51.910;8.878;2023-04-07T01:41:54;99639.72;;;10.77;44.45
26823;BME280;14852;51.910;8.878;2023-04-07T01:44:22;99637.13;;;10.77;44.83
26823;BME280;14852;51.910;8.878;2023-04-07T01:46:48;99637.19;;;10.76;45.01
26823;BME280;14852;51.910;8.878;2023-04-07T01:49:18;99643.22;;;10.76;44.75
26823;BME280;14852;51.910;8.878;2023-04-07T01:51:45;99632.91;;;10.75;45.04
26823;BME280;14852;51.910;8.878;2023-04-07T01:54:15;99637.38;;;10.73;45.28
26823;BME280;14852;51.910;8.878;2023-04-07T01:56:43;99645.34;;;10.70;45.29
26823;BME280;14852;51.910;8.878;2023-04-07T01:59:09;99637.78;;;10.65;45.51
26823;BME280;14852;51.910;8.878;2023-04-07T02:01:35;99641.50;;;10.61;45.43
26823;BME280;14852;51.910;8.878;2023-04-07T02:04:15;99639.63;;;10.63;45.76
26823;BME280;14852;51.910;8.878;2023-04-07T02:06:53;99638.97;;;10.60;45.97
26823;BME280;14852;51.910;8.878;2023-04-07T02:09:31;99642.81;;;10.52;46.03
26823;BME280;14852;51.910;8.878;2023-04-07T02:11:59;99633.69;;;10.45;46.24
26823;BME280;14852;51.910;8.878;2023-04-07T02:14:30;99634.75;;;10.41;46.51
26823;BME280;14852;51.910;8.878;2023-04-07T02:17:03;99629.81;;;10.37;47.19
26823;BME280;14852;51.910;8.878;2023-04-07T02:19:31;99636.00;;;10.34;46.79
26823;BME280;14852;51.910;8.878;2023-04-07T02:22:01;99636.16;;;10.31;47.34
26823;BME280;14852;51.910;8.878;2023-04-07T02:24:27;99627.63;;;10.29;47.09
26823;BME280;14852;51.910;8.878;2023-04-07T02:26:53;99627.81;;;10.26;47.37
26823;BME280;14852;51.910;8.878;2023-04-07T02:29:19;99631.47;;;10.22;47.68
26823;BME280;14852;51.910;8.878;2023-04-07T02:31:44;99622.00;;;10.21;47.23
26823;BME280;14852;51.910;8.878;2023-04-07T02:34:10;99629.94;;;10.18;47.35
26823;BME280;14852;51.910;8.878;2023-04-07T02:36:38;99620.44;;;10.17;47.47
26823;BME280;14852;51.910;8.878;2023-04-07T02:39:08;99628.41;;;10.14;47.92
26823;BME280;14852;51.910;8.878;2023-04-07T02:41:33;99630.47;;;10.07;48.40
26823;BME280;14852;51.910;8.878;2023-04-07T02:43:59;99626.19;;;10.06;48.38
26823;BME280;14852;51.910;8.878;2023-04-07T02:46:25;99630.56;;;10.06;48.40
26823;BME280;14852;51.910;8.878;2023-04-07T02:48:51;99626.13;;;10.08;48.35
26823;BME280;14852;51.910;8.878;2023-04-07T02:51:16;99623.53;;;10.08;48.15
26823;BME280;14852;51.910;8.878;2023-04-07T02:53:42;99633.22;;;10.04;48.40
26823;BME280;14852;51.910;8.878;2023-04-07T02:56:09;99630.81;;;10.01;48.83
26823;BME280;14852;51.910;8.878;2023-04-07T02:58:34;99632.72;;;9.98;48.91
26823;BME280;14852;51.910;8.878;2023-04-07T03:01:00;99631.94;;;9.96;49.35
26823;BME280;14852;51.910;8.878;2023-04-07T03:03:29;99625.16;;;9.93;49.64
26823;BME280;14852;51.910;8.878;2023-04-07T03:06:10;99632.94;;;9.93;49.35
26823;BME280;14852;51.910;8.878;2023-04-07T03:08:44;99624.56;;;9.88;50.41
26823;BME280;14852;51.910;8.878;2023-04-07T03:11:11;99628.16;;;9.86;50.24
26823;BME280;14852;51.910;8.878;2023-04-07T03:13:37;99629.91;;;9.85;50.34
26823;BME280;14852;51.910;8.878;2023-04-07T03:16:03;99628.38;;;9.81;50.55
26823;BME280;14852;51.910;8.878;2023-04-07T03:18:34;99632.13;;;9.75;51.05
26823;BME280;14852;51.910;8.878;2023-04-07T03:21:00;99626.19;;;9.73;51.20
26823;BME280;14852;51.910;8.878;2023-04-07T03:23:26;99619.31;;;9.72;50.87
26823;BME280;14852;51.910;8.878;2023-04-07T03:26:03;99622.91;;;9.70;51.52
26823;BME280;14852;51.910;8.878;2023-04-07T03:28:33;99617.88;;;9.67;51.79
26823;BME280;14852;51.910;8.878;2023-04-07T03:30:59;99616.28;;;9.64;52.11
26823;BME280;14852;51.910;8.878;2023-04-07T03:33:25;99621.47;;;9.64;51.83
26823;BME280;14852;51.910;8.878;2023-04-07T03:35:53;99616.50;;;9.60;51.80
26823;BME280;14852;51.910;8.878;2023-04-07T03:38:20;99617.59;;;9.56;52.86
26823;BME280;14852;51.910;8.878;2023-04-07T03:40:48;99628.88;;;9.55;52.91
26823;BME280;14852;51.910;8.878;2023-04-07T03:43:14;99623.84;;;9.52;53.00
26823;BME280;14852;51.910;8.878;2023-04-07T03:45:41;99624.81;;;9.49;53.94
26823;BME280;14852;51.910;8.878;2023-04-07T03:48:08;99629.25;;;9.47;53.74
26823;BME280;14852;51.910;8.878;2023-04-07T03:50:45;99628.34;;;9.48;53.10
26823;BME280;14852;51.910;8.878;2023-04-07T03:53:14;99617.03;;;9.49;53.09
26823;BME280;14852;51.910;8.878;2023-04-07T03:55:42;99630.00;;;9.49;53.48
26823;BME280;14852;51.910;8.878;2023-04-07T03:58:16;99632.59;;;9.49;53.33
26823;BME280;14852;51.910;8.878;2023-04-07T04:00:45;99623.06;;;9.50;53.44
26823;BME280;14852;51.910;8.878;2023-04-07T04:03:11;99623.97;;;9.49;53.36
26823;BME280;14852;51.910;8.878;2023-04-07T04:05:47;99624.91;;;9.48;53.37
26823;BME280;14852;51.910;8.878;2023-04-07T04:08:19;99625.75;;;9.48;53.38
26823;BME280;14852;51.910;8.878;2023-04-07T04:10:46;99631.84;;;9.47;53.30
26823;BME280;14852;51.910;8.878;2023-04-07T04:13:11;99634.44;;;9.47;53.74
26823;BME280;14852;51.910;8.878;2023-04-07T04:15:39;99632.84;;;9.44;53.64
26823;BME280;14852;51.910;8.878;2023-04-07T04:18:10;99636.34;;;9.43;53.58
26823;BME280;14852;51.910;8.878;2023-04-07T04:20:36;99631.25;;;9.42;53.76
26823;BME280;14852;51.910;8.878;2023-04-07T04:23:03;99631.31;;;9.40;53.89
26823;BME280;14852;51.910;8.878;2023-04-07T04:25:29;99636.44;;;9.42;54.09
26823;BME280;14852;51.910;8.878;2023-04-07T04:27:56;99628.72;;;9.40;53.64
26823;BME280;14852;51.910;8.878;2023-04-07T04:30:24;99636.50;;;9.40;53.92
26823;BME280;14852;51.910;8.878;2023-04-07T04:32:58;99637.19;;;9.44;53.35
26823;BME280;14852;51.910;8.878;2023-04-07T04:35:32;99646.03;;;9.40;53.85
26823;BME280;14852;51.910;8.878;2023-04-07T04:38:16;99640.91;;;9.38;54.01
26823;BME280;14852;51.910;8.878;2023-04-07T04:40:48;99647.19;;;9.34;53.62
26823;BME280;14852;51.910;8.878;2023-04-07T04:43:17;99649.84;;;9.33;54.05
26823;BME280;14852;51.910;8.878;2023-04-07T04:45:43;99646.50;;;9.31;53.95
26823;BME280;14852;51.910;8.878;2023-04-07T04:48:12;99649.16;;;9.29;54.06
26823;BME280;14852;51.910;8.878;2023-04-07T04:50:37;99650.84;;;9.30;54.25
26823;BME280;14852;51.910;8.878;2023-04-07T04:53:08;99650.84;;;9.30;54.61
26823;BME280;14852;51.910;8.878;2023-04-07T04:55:40;99658.53;;;9.32;54.45
26823;BME280;14852;51.910;8.878;2023-04-07T04:58:09;99660.06;;;9.36;54.60
26823;BME280;14852;51.910;8.878;2023-04-07T05:00:45;99662.50;;;9.39;54.67
26823;BME280;14852;51.910;8.878;2023-04-07T05:03:11;99658.84;;;9.43;54.88
26823;BME280;14852;51.910;8.878;2023-04-07T05:05:40;99656.84;;;9.48;55.05
26823;BME280;14852;51.910;8.878;2023-04-07T05:08:09;99663.38;;;9.57;54.38
26823;BME280;14852;51.910;8.878;2023-04-07T05:10:40;99657.78;;;9.64;54.28
26823;BME280;14852;51.910;8.878;2023-04-07T05:13:10;99656.72;;;9.68;53.80
26823;BME280;14852;51.910;8.878;2023-04-07T05:15:36;99666.09;;;9.71;54.07
26823;BME280;14852;51.910;8.878;2023-04-07T05:18:04;99660.69;;;9.75;54.03
26823;BME280;14852;51.910;8.878;2023-04-07T05:20:30;99660.75;;;9.74;54.36
26823;BME280;14852;51.910;8.878;2023-04-07T05:22:55;99657.09;;;9.78;54.38
26823;BME280;14852;51.910;8.878;2023-04-07T05:25:27;99666.38;;;9.82;54.32
26823;BME280;14852;51.910;8.878;2023-04-07T05:27:58;99668.75;;;9.87;54.05
26823;BME280;14852;51.910;8.878;2023-04-07T05:30:26;99667.09;;;9.86;54.55
26823;BME280;14852;51.910;8.878;2023-04-07T05:32:52;99672.97;;;9.89;54.53
26823;BME280;14852;51.910;8.878;2023-04-07T05:35:31;99666.84;;;9.90;54.69
26823;BME280;14852;51.910;8.878;2023-04-07T05:37:58;99668.75;;;9.87;54.69
26823;BME280;14852;51.910;8.878;2023-04-07T05:40:24;99673.88;;;9.88;54.47
26823;BME280;14852;51.910;8.878;2023-04-07T05:42:50;99676.22;;;9.93;54.73
26823;BME280;14852;51.910;8.878;2023-04-07T05:45:16;99667.28;;;9.98;54.82
26823;BME280;14852;51.910;8.878;2023-04-07T05:47:45;99677.34;;;10.04;54.86
26823;BME280;14852;51.910;8.878;2023-04-07T05:50:17;99681.31;;;10.11;54.48
26823;BME280;14852;51.910;8.878;2023-04-07T05:52:45;99679.28;;;10.18;54.64
26823;BME280;14852;51.910;8.878;2023-04-07T05:55:20;99678.91;;;10.26;54.41
26823;BME280;14852;51.910;8.878;2023-04-07T05:57:47;99687.81;;;10.37;54.48
26823;BME280;14852;51.910;8.878;2023-04-07T06:00:16;99686.75;;;10.57;53.94
26823;BME280;14852;51.910;8.878;2023-04-07T06:02:46;99683.63;;;10.66;53.91
26823;BME280;14852;51.910;8.878;2023-04-07T06:05:17;99694.72;;;10.70;54.18
26823;BME280;14852;51.910;8.878;2023-04-07T06:07:44;99690.59;;;10.66;53.87
26823;BME280;14852;51.910;8.878;2023-04-07T06:10:10;99690.75;;;10.63;53.73
26823;BME280;14852;51.910;8.878;2023-04-07T06:12:36;99687.22;;;10.64;54.10
26823;BME280;14852;51.910;8.878;2023-04-07T06:15:01;99697.88;;;10.59;54.55
26823;BME280;14852;51.910;8.878;2023-04-07T06:17:27;99702.47;;;10.54;54.27
26823;BME280;14852;51.910;8.878;2023-04-07T06:19:53;99708.34;;;10.58;54.53
26823;BME280;14852;51.910;8.878;2023-04-07T06:22:19;99708.28;;;10.59;54.59
26823;BME280;14852;51.910;8.878;2023-04-07T06:24:44;99706.19;;;10.66;54.31
26823;BME280;14852;51.910;8.878;2023-04-07T06:27:10;99705.28;;;10.67;54.26
26823;BME280;14852;51.910;8.878;2023-04-07T06:29:36;99704.19;;;10.71;54.40
26823;BME280;14852;51.910;8.878;2023-04-07T06:32:04;99704.00;;;10.74;53.98
26823;BME280;14852;51.910;8.878;2023-04-07T06:34:31;99703.00;;;10.76;54.18
26823;BME280;14852;51.910;8.878;2023-04-07T06:36:57;99706.84;;;10.85;54.27
26823;BME280;14852;51.910;8.878;2023-04-07T06:39:25;99707.38;;;10.92;54.11
26823;BME280;14852;51.910;8.878;2023-04-07T06:41:51;99711.06;;;10.87;53.99
26823;BME280;14852;51.910;8.878;2023-04-07T06:44:17;99716.34;;;10.86;54.20
26823;BME280;14852;51.910;8.878;2023-04-07T06:46:42;99713.59;;;10.89;54.25
26823;BME280;14852;51.910;8.878;2023-04-07T06:49:11;99714.50;;;10.88;54.39
26823;BME280;14852;51.910;8.878;2023-04-07T06:51:37;99715.25;;;10.90;54.19
26823;BME280;14852;51.910;8.878;2023-04-07T06:54:03;99722.81;;;10.95;54.08
26823;BME280;14852;51.910;8.878;2023-04-07T06:56:30;99719.31;;;10.96;53.75
26823;BME280;14852;51.910;8.878;2023-04-07T06:58:56;99718.19;;;11.00;53.60
26823;BME280;14852;51.910;8.878;2023-04-07T07:01:22;99725.59;;;11.07;53.92
26823;BME280;14852;51.910;8.878;2023-04-07T07:03:47;99721.22;;;11.23;53.53
26823;BME280;14852;51.910;8.878;2023-04-07T07:06:13;99720.66;;;11.64;52.75
26823;BME280;14852;51.910;8.878;2023-04-07T07:08:39;99723.53;;;11.89;51.97
26823;BME280;14852;51.910;8.878;2023-04-07T07:11:05;99725.25;;;12.05;51.55
26823;BME280;14852;51.910;8.878;2023-04-07T07:13:31;99729.91;;;12.00;51.97
26823;BME280;14852;51.910;8.878;2023-04-07T07:15:56;99724.50;;;11.73;52.16
26823;BME280;14852;51.910;8.878;2023-04-07T07:18:22;99727.88;;;11.59;52.84
26823;BME280;14852;51.910;8.878;2023-04-07T07:20:48;99734.59;;;11.47;53.07
26823;BME280;14852;51.910;8.878;2023-04-07T07:23:15;99730.50;;;11.43;52.96
26823;BME280;14852;51.910;8.878;2023-04-07T07:25:40;99736.44;;;11.45;53.16
26823;BME280;14852;51.910;8.878;2023-04-07T07:28:06;99742.72;;;11.57;53.19
26823;BME280;14852;51.910;8.878;2023-04-07T07:30:33;99742.13;;;11.68;52.41
26823;BME280;14852;51.910;8.878;2023-04-07T07:32:59;99740.72;;;11.62;52.86
26823;BME280;14852;51.910;8.878;2023-04-07T07:35:25;99742.31;;;11.65;52.50
26823;BME280;14852;51.910;8.878;2023-04-07T07:37:51;99737.09;;;11.65;52.61
26823;BME280;14852;51.910;8.878;2023-04-07T07:40:17;99754.97;;;11.71;52.70
26823;BME280;14852;51.910;8.878;2023-04-07T07:42:45;99751.69;;;11.83;52.26
26823;BME280;14852;51.910;8.878;2023-04-07T07:45:11;99754.53;;;11.94;51.97
26823;BME280;14852;51.910;8.878;2023-04-07T07:47:38;99752.00;;;11.92;51.75
26823;BME280;14852;51.910;8.878;2023-04-07T07:50:04;99757.19;;;11.92;51.51
26823;BME280;14852;51.910;8.878;2023-04-07T07:52:31;99755.59;;;11.90;51.34
26823;BME280;14852;51.910;8.878;2023-04-07T07:54:57;99761.41;;;11.95;51.63
26823;BME280;14852;51.910;8.878;2023-04-07T07:57:22;99757.72;;;11.99;51.47
26823;BME280;14852;51.910;8.878;2023-04-07T07:59:48;99759.69;;;12.10;51.40
26823;BME280;14852;51.910;8.878;2023-04-07T08:02:14;99766.13;;;12.18;51.17
26823;BME280;14852;51.910;8.878;2023-04-07T08:04:40;99763.78;;;12.28;50.77
26823;BME280;14852;51.910;8.878;2023-04-07T08:07:06;99757.59;;;12.45;50.67
26823;BME280;14852;51.910;8.878;2023-04-07T08:09:32;99760.19;;;12.59;49.98
26823;BME280;14852;51.910;8.878;2023-04-07T08:11:58;99763.28;;;12.65;50.06
26823;BME280;14852;51.910;8.878;2023-04-07T08:14:23;99771.84;;;12.67;49.95
26823;BME280;14852;51.910;8.878;2023-04-07T08:16:49;99776.66;;;12.59;49.75
26823;BME280;14852;51.910;8.878;2023-04-07T08:19:15;99771.75;;;12.55;49.72
26823;BME280;14852;51.910;8.878;2023-04-07T08:21:41;99776.31;;;12.65;50.20
26823;BME280;14852;51.910;8.878;2023-04-07T08:24:08;99780.09;;;12.60;49.74
26823;BME280;14852;51.910;8.878;2023-04-07T08:26:34;99784.47;;;12.59;49.65
26823;BME280;14852;51.910;8.878;2023-04-07T08:29:00;99774.53;;;12.52;49.56
26823;BME280;14852;51.910;8.878;2023-04-07T08:31:26;99790.44;;;12.47;49.72
26823;BME280;14852;51.910;8.878;2023-04-07T08:33:52;99774.53;;;12.52;49.56
26823;BME280;14852;51.910;8.878;2023-04-07T08:36:26;99784.47;;;12.59;49.33
26823;BME280;14852;51.910;8.878;2023-04-07T08:38:53;99794.72;;;12.62;49.46
26823;BME280;14852;51.910;8.878;2023-04-07T08:41:38;99784.88;;;12.67;49.20
26823;BME280;14852;51.910;8.878;2023-04-07T08:44:06;99790.09;;;12.67;48.74
26823;BME280;14852;51.910;8.878;2023-04-07T08:46:33;99796.22;;;12.81;48.77
26823;BME280;14852;51.910;8.878;2023-04-07T08:49:00;99792.59;;;12.97;48.02
26823;BME280;14852;51.910;8.878;2023-04-07T08:51:29;99793.16;;;13.02;48.04
26823;BME280;14852;51.910;8.878;2023-04-07T08:54:14;99806.66;;;13.23;48.25
26823;BME280;14852;51.910;8.878;2023-04-07T08:56:42;99800.03;;;13.32;47.85
26823;BME280;14852;51.910;8.878;2023-04-07T08:59:13;99797.50;;;13.30;47.36
26823;BME280;14852;51.910;8.878;2023-04-07T09:01:40;99795.91;;;13.28;47.34
26823;BME280;14852;51.910;8.878;2023-04-07T09:04:08;99806.28;;;13.29;47.00
26823;BME280;14852;51.910;8.878;2023-04-07T09:06:34;99805.69;;;13.38;47.52
26823;BME280;14852;51.910;8.878;2023-04-07T09:09:02;99805.22;;;13.46;47.41
26823;BME280;14852;51.910;8.878;2023-04-07T09:11:29;99807.53;;;13.51;47.39
26823;BME280;14852;51.910;8.878;2023-04-07T09:13:55;99818.94;;;13.35;47.35
26823;BME280;14852;51.910;8.878;2023-04-07T09:16:22;99813.63;;;13.37;47.32
26823;BME280;14852;51.910;8.878;2023-04-07T09:18:52;99812.28;;;13.58;47.10
26823;BME280;14852;51.910;8.878;2023-04-07T09:21:18;99818.25;;;13.73;46.96
26823;BME280;14852;51.910;8.878;2023-04-07T09:23:45;99819.31;;;13.70;46.99
26823;BME280;14852;51.910;8.878;2023-04-07T09:28:52;99815.47;;;13.76;46.75
26823;BME280;14852;51.910;8.878;2023-04-07T09:31:18;99818.06;;;13.76;46.81
26823;BME280;14852;51.910;8.878;2023-04-07T09:33:49;99822.97;;;13.68;46.74
26823;BME280;14852;51.910;8.878;2023-04-07T09:36:15;99820.09;;;13.58;47.06
26823;BME280;14852;51.910;8.878;2023-04-07T09:38:44;99814.88;;;13.58;46.65
26823;BME280;14852;51.910;8.878;2023-04-07T09:41:16;99825.16;;;13.61;46.34
26823;BME280;14852;51.910;8.878;2023-04-07T09:43:45;99820.59;;;13.77;46.42
26823;BME280;14852;51.910;8.878;2023-04-07T09:46:15;99825.31;;;13.85;46.64
26823;BME280;14852;51.910;8.878;2023-04-07T09:48:44;99819.09;;;14.00;46.36
26823;BME280;14852;51.910;8.878;2023-04-07T09:51:16;99817.03;;;14.05;45.72
26823;BME280;14852;51.910;8.878;2023-04-07T09:53:52;99815.56;;;14.01;45.79
26823;BME280;14852;51.910;8.878;2023-04-07T09:56:20;99815.22;;;13.93;45.66
26823;BME280;14852;51.910;8.878;2023-04-07T09:58:49;99813.44;;;13.94;45.61
26823;BME280;14852;51.910;8.878;2023-04-07T10:01:21;99819.31;;;14.10;46.02
26823;BME280;14852;51.910;8.878;2023-04-07T10:03:47;99808.50;;;14.29;45.65
26823;BME280;14852;51.910;8.878;2023-04-07T10:06:15;99811.03;;;14.43;44.88
26823;BME280;14852;51.910;8.878;2023-04-07T10:08:42;99810.03;;;14.58;45.29
26823;BME280;14852;51.910;8.878;2023-04-07T10:11:09;99808.66;;;14.78;44.14
26823;BME280;14852;51.910;8.878;2023-04-07T10:13:38;99806.13;;;14.89;44.50
26823;BME280;14852;51.910;8.878;2023-04-07T10:16:06;99808.72;;;15.02;43.95
26823;BME280;14852;51.910;8.878;2023-04-07T10:18:34;99815.06;;;15.23;44.14
26823;BME280;14852;51.910;8.878;2023-04-07T10:21:06;99810.75;;;15.35;43.72
26823;BME280;14852;51.910;8.878;2023-04-07T10:23:58;99812.50;;;15.47;43.65
26823;BME280;14852;51.910;8.878;2023-04-07T10:26:32;99807.88;;;15.50;43.56
26823;BME280;14852;51.910;8.878;2023-04-07T10:29:07;99818.03;;;15.68;42.78
26823;BME280;14852;51.910;8.878;2023-04-07T10:31:36;99809.34;;;15.67;42.54
26823;BME280;14852;51.910;8.878;2023-04-07T10:34:03;99814.06;;;15.62;41.99
26823;BME280;14852;51.910;8.878;2023-04-07T10:36:30;99817.72;;;15.60;42.09
26823;BME280;14852;51.910;8.878;2023-04-07T10:41:40;99817.13;;;15.56;41.16
26823;BME280;14852;51.910;8.878;2023-04-07T10:44:08;99819.28;;;15.62;41.30
26823;BME280;14852;51.910;8.878;2023-04-07T10:49:17;99816.91;;;15.83;41.20
26823;BME280;14852;51.910;8.878;2023-04-07T10:51:43;99820.34;;;15.83;40.77
26823;BME280;14852;51.910;8.878;2023-04-07T10:54:22;99828.09;;;15.85;40.77
26823;BME280;14852;51.910;8.878;2023-04-07T10:59:29;99816.03;;;16.41;40.67
26823;BME280;14852;51.910;8.878;2023-04-07T11:04:49;99814.31;;;16.64;39.31
26823;BME280;14852;51.910;8.878;2023-04-07T11:07:15;99813.88;;;16.81;39.75
26823;BME280;14852;51.910;8.878;2023-04-07T11:09:41;99817.56;;;16.90;39.38
26823;BME280;14852;51.910;8.878;2023-04-07T11:12:08;99809.69;;;16.90;39.61
26823;BME280;14852;51.910;8.878;2023-04-07T11:14:34;99811.38;;;16.91;38.41
26823;BME280;14852;51.910;8.878;2023-04-07T11:17:02;99820.19;;;16.79;38.31
26823;BME280;14852;51.910;8.878;2023-04-07T11:19:29;99812.31;;;16.79;38.25
26823;BME280;14852;51.910;8.878;2023-04-07T11:22:17;99810.66;;;16.89;38.35
26823;BME280;14852;51.910;8.878;2023-04-07T11:24:44;99813.75;;;16.94;37.71
26823;BME280;14852;51.910;8.878;2023-04-07T11:27:14;99827.22;;;17.00;38.07
26823;BME280;14852;51.910;8.878;2023-04-07T11:29:40;99821.53;;;17.07;37.98
26823;BME280;14852;51.910;8.878;2023-04-07T11:32:06;99821.97;;;17.00;37.60
26823;BME280;14852;51.910;8.878;2023-04-07T11:34:35;99822.09;;;16.99;37.77
26823;BME280;14852;51.910;8.878;2023-04-07T11:37:23;99818.16;;;17.16;37.93
26823;BME280;14852;51.910;8.878;2023-04-07T11:39:57;99826.28;;;17.24;37.61
26823;BME280;14852;51.910;8.878;2023-04-07T11:42:39;99819.31;;;17.34;36.52
26823;BME280;14852;51.910;8.878;2023-04-07T11:45:15;99823.63;;;17.35;36.07
26823;BME280;14852;51.910;8.878;2023-04-07T11:47:41;99825.44;;;17.23;36.55
26823;BME280;14852;51.910;8.878;2023-04-07T11:50:08;99825.44;;;17.01;35.77
26823;BME280;14852;51.910;8.878;2023-04-07T11:52:46;99831.63;;;16.78;36.61
26823;BME280;14852;51.910;8.878;2023-04-07T11:55:22;99829.97;;;16.77;37.09
26823;BME280;14852;51.910;8.878;2023-04-07T11:57:51;99818.75;;;16.86;36.16
26823;BME280;14852;51.910;8.878;2023-04-07T12:00:18;99826.63;;;16.86;36.46
26823;BME280;14852;51.910;8.878;2023-04-07T12:02:44;99826.50;;;16.87;36.32
26823;BME280;14852;51.910;8.878;2023-04-07T12:05:11;99834.75;;;16.83;35.94
26823;BME280;14852;51.910;8.878;2023-04-07T12:07:37;99827.56;;;16.74;35.80
26823;BME280;14852;51.910;8.878;2023-04-07T12:10:21;99835.22;;;16.88;36.63
26823;BME280;14852;51.910;8.878;2023-04-07T12:12:47;99842.25;;;16.76;36.38
26823;BME280;14852;51.910;8.878;2023-04-07T12:15:13;99834.97;;;16.69;36.54
26823;BME280;14852;51.910;8.878;2023-04-07T12:17:45;99839.50;;;16.78;36.71
26823;BME280;14852;51.910;8.878;2023-04-07T12:20:12;99838.34;;;17.04;36.52
26823;BME280;14852;51.910;8.878;2023-04-07T12:22:39;99841.19;;;17.12;36.04
26823;BME280;14852;51.910;8.878;2023-04-07T12:25:05;99832.38;;;17.02;35.87
26823;BME280;14852;51.910;8.878;2023-04-07T12:27:31;99844.41;;;16.93;36.29
26823;BME280;14852;51.910;8.878;2023-04-07T12:29:57;99839.50;;;16.78;35.86
26823;BME280;14852;51.910;8.878;2023-04-07T12:32:23;99842.72;;;16.70;36.12
26823;BME280;14852;51.910;8.878;2023-04-07T12:34:49;99833.91;;;16.71;36.70
26823;BME280;14852;51.910;8.878;2023-04-07T12:37:14;99831.03;;;16.74;36.40
26823;BME280;14852;51.910;8.878;2023-04-07T12:39:40;99834.47;;;16.75;36.40
26823;BME280;14852;51.910;8.878;2023-04-07T12:42:06;99838.69;;;16.88;36.19
26823;BME280;14852;51.910;8.878;2023-04-07T12:44:37;99830.09;;;16.97;35.82
26823;BME280;14852;51.910;8.878;2023-04-07T12:47:02;99829.25;;;16.97;35.24
26823;BME280;14852;51.910;8.878;2023-04-07T12:49:28;99835.72;;;17.04;35.92
26823;BME280;14852;51.910;8.878;2023-04-07T12:51:54;99834.75;;;17.16;35.57
26823;BME280;14852;51.910;8.878;2023-04-07T12:54:20;99834.25;;;17.22;35.29
26823;BME280;14852;51.910;8.878;2023-04-07T12:56:46;99834.97;;;17.35;35.44
26823;BME280;14852;51.910;8.878;2023-04-07T12:59:12;99834.00;;;17.48;35.21
26823;BME280;14852;51.910;8.878;2023-04-07T13:01:38;99833.03;;;17.49;35.33
26823;BME280;14852;51.910;8.878;2023-04-07T13:04:05;99823.59;;;17.46;35.13
26823;BME280;14852;51.910;8.878;2023-04-07T13:06:31;99819.28;;;17.56;35.15
26823;BME280;14852;51.910;8.878;2023-04-07T13:08:57;99826.22;;;17.57;33.98
26823;BME280;14852;51.910;8.878;2023-04-07T13:11:22;99822.88;;;17.66;34.36
26823;BME280;14852;51.910;8.878;2023-04-07T13:13:48;99817.53;;;17.89;34.66
26823;BME280;14852;51.910;8.878;2023-04-07T13:16:14;99821.69;;;18.02;33.80
26823;BME280;14852;51.910;8.878;2023-04-07T13:18:40;99815.59;;;18.02;34.00
26823;BME280;14852;51.910;8.878;2023-04-07T13:21:06;99821.06;;;18.10;33.61
26823;BME280;14852;51.910;8.878;2023-04-07T13:23:31;99823.31;;;18.15;33.04
26823;BME280;14852;51.910;8.878;2023-04-07T13:25:57;99819.84;;;18.14;33.09
26823;BME280;14852;51.910;8.878;2023-04-07T13:28:23;99822.09;;;18.19;32.72
26823;BME280;14852;51.910;8.878;2023-04-07T13:30:49;99820.19;;;18.21;32.88